sensor_id;sensor_type;location;lat;lon;timestamp;P1;durP1;ratioP1;P2;durP2;ratioP2
73585;SDS011;61865;50.232;18.614;2023-07-13T00:00:45;6.90;;;2.60;;
73585;SDS011;61865;50.232;18.614;2023-07-13T00:03:07;3.70;;;2.45;;
73585;SDS011;61865;50.232;18.614;2023-07-13T00:05:29;5.72;;;2.78;;
73585;SDS011;61865;50.232;18.614;2023-07-13T00:07:52;5.32;;;2.70;;
73585;SDS011;61865;50.232;18.614;2023-07-13T00:10:15;8.85;;;2.67;;
73585;SDS011;61865;50.232;18.614;2023-07-13T00:12:37;5.18;;;2.60;;
73585;SDS011;61865;50.232;18.614;2023-07-13T00:15:01;5.15;;;2.20;;
73585;SDS011;61865;50.232;18.614;2023-07-13T00:17:25;2.80;;;2.15;;
73585;SDS011;61865;50.232;18.614;2023-07-13T00:19:48;6.60;;;2.63;;
73585;SDS011;61865;50.232;18.614;2023-07-13T00:22:10;4.50;;;2.58;;
73585;SDS011;61865;50.232;18.614;2023-07-13T00:24:32;4.65;;;2.50;;
73585;SDS011;61865;50.232;18.614;2023-07-13T00:26:56;5.65;;;3.05;;
73585;SDS011;61865;50.232;18.614;2023-07-13T00:29:18;6.05;;;2.72;;
73585;SDS011;61865;50.232;18.614;2023-07-13T00:31:41;7.93;;;3.05;;
73585;SDS011;61865;50.232;18.614;2023-07-13T00:34:05;6.43;;;2.58;;
73585;SDS011;61865;50.232;18.614;2023-07-13T00:36:27;4.70;;;2.58;;
73585;SDS011;61865;50.232;18.614;2023-07-13T00:38:50;4.75;;;2.80;;
73585;SDS011;61865;50.232;18.614;2023-07-13T00:41:12;4.03;;;2.45;;
73585;SDS011;61865;50.232;18.614;2023-07-13T00:43:35;4.75;;;2.83;;
73585;SDS011;61865;50.232;18.614;2023-07-13T00:46:11;6.57;;;2.90;;
73585;SDS011;61865;50.232;18.614;2023-07-13T00:48:35;4.32;;;2.60;;
73585;SDS011;61865;50.232;18.614;2023-07-13T00:51:00;4.18;;;2.70;;
73585;SDS011;61865;50.232;18.614;2023-07-13T00:53:22;5.53;;;2.95;;
73585;SDS011;61865;50.232;18.614;2023-07-13T00:55:46;8.20;;;3.42;;
73585;SDS011;61865;50.232;18.614;2023-07-13T00:58:12;4.47;;;2.80;;
73585;SDS011;61865;50.232;18.614;2023-07-13T01:00:35;7.18;;;3.25;;
73585;SDS011;61865;50.232;18.614;2023-07-13T01:02:58;4.72;;;2.90;;
73585;SDS011;61865;50.232;18.614;2023-07-13T01:05:22;6.35;;;3.55;;
73585;SDS011;61865;50.232;18.614;2023-07-13T01:07:46;9.65;;;3.45;;
73585;SDS011;61865;50.232;18.614;2023-07-13T01:10:10;7.10;;;3.53;;
73585;SDS011;61865;50.232;18.614;2023-07-13T01:12:32;4.88;;;2.83;;
73585;SDS011;61865;50.232;18.614;2023-07-13T01:14:56;6.97;;;3.50;;
73585;SDS011;61865;50.232;18.614;2023-07-13T01:17:20;8.35;;;3.70;;
73585;SDS011;61865;50.232;18.614;2023-07-13T01:19:43;6.07;;;3.42;;
73585;SDS011;61865;50.232;18.614;2023-07-13T01:22:08;6.88;;;3.47;;
73585;SDS011;61865;50.232;18.614;2023-07-13T01:24:31;5.90;;;3.17;;
73585;SDS011;61865;50.232;18.614;2023-07-13T01:26:53;9.77;;;3.22;;
73585;SDS011;61865;50.232;18.614;2023-07-13T01:29:16;6.93;;;3.40;;
73585;SDS011;61865;50.232;18.614;2023-07-13T01:31:38;5.38;;;3.08;;
73585;SDS011;61865;50.232;18.614;2023-07-13T01:34:00;13.25;;;3.90;;
73585;SDS011;61865;50.232;18.614;2023-07-13T01:36:23;48.97;;;5.45;;
73585;SDS011;61865;50.232;18.614;2023-07-13T01:38:46;10.43;;;4.28;;
73585;SDS011;61865;50.232;18.614;2023-07-13T01:41:09;54.47;;;6.13;;
73585;SDS011;61865;50.232;18.614;2023-07-13T01:43:31;7.28;;;4.22;;
73585;SDS011;61865;50.232;18.614;2023-07-13T01:45:54;6.00;;;3.72;;
73585;SDS011;61865;50.232;18.614;2023-07-13T01:48:16;6.15;;;3.95;;
73585;SDS011;61865;50.232;18.614;2023-07-13T01:50:39;7.60;;;3.63;;
73585;SDS011;61865;50.232;18.614;2023-07-13T01:53:01;5.70;;;3.95;;
73585;SDS011;61865;50.232;18.614;2023-07-13T01:55:25;6.05;;;3.92;;
73585;SDS011;61865;50.232;18.614;2023-07-13T01:57:51;7.80;;;4.65;;
73585;SDS011;61865;50.232;18.614;2023-07-13T02:00:14;6.05;;;3.70;;
73585;SDS011;61865;50.232;18.614;2023-07-13T02:02:36;8.30;;;3.85;;
73585;SDS011;61865;50.232;18.614;2023-07-13T02:04:59;7.28;;;4.22;;
73585;SDS011;61865;50.232;18.614;2023-07-13T02:07:21;7.10;;;3.70;;
73585;SDS011;61865;50.232;18.614;2023-07-13T02:09:43;8.27;;;4.28;;
73585;SDS011;61865;50.232;18.614;2023-07-13T02:12:08;7.15;;;4.53;;
73585;SDS011;61865;50.232;18.614;2023-07-13T02:14:30;7.20;;;3.90;;
73585;SDS011;61865;50.232;18.614;2023-07-13T02:16:53;7.03;;;4.20;;
73585;SDS011;61865;50.232;18.614;2023-07-13T02:19:15;6.75;;;4.03;;
73585;SDS011;61865;50.232;18.614;2023-07-13T02:21:37;5.30;;;3.72;;
73585;SDS011;61865;50.232;18.614;2023-07-13T02:24:00;13.73;;;3.90;;
73585;SDS011;61865;50.232;18.614;2023-07-13T02:26:22;5.70;;;3.35;;
73585;SDS011;61865;50.232;18.614;2023-07-13T02:28:46;8.40;;;3.88;;
73585;SDS011;61865;50.232;18.614;2023-07-13T02:31:09;7.82;;;4.13;;
73585;SDS011;61865;50.232;18.614;2023-07-13T02:33:31;6.95;;;3.83;;
73585;SDS011;61865;50.232;18.614;2023-07-13T02:35:53;6.82;;;4.10;;
73585;SDS011;61865;50.232;18.614;2023-07-13T02:38:15;6.13;;;3.92;;
73585;SDS011;61865;50.232;18.614;2023-07-13T02:40:38;8.60;;;4.03;;
73585;SDS011;61865;50.232;18.614;2023-07-13T02:43:00;5.90;;;3.78;;
73585;SDS011;61865;50.232;18.614;2023-07-13T02:45:24;6.65;;;3.97;;
73585;SDS011;61865;50.232;18.614;2023-07-13T02:47:46;5.65;;;3.65;;
73585;SDS011;61865;50.232;18.614;2023-07-13T02:50:09;8.52;;;4.00;;
73585;SDS011;61865;50.232;18.614;2023-07-13T02:52:31;7.07;;;4.18;;
73585;SDS011;61865;50.232;18.614;2023-07-13T02:54:53;13.13;;;4.03;;
73585;SDS011;61865;50.232;18.614;2023-07-13T02:57:17;11.32;;;4.53;;
73585;SDS011;61865;50.232;18.614;2023-07-13T02:59:40;8.27;;;4.20;;
73585;SDS011;61865;50.232;18.614;2023-07-13T03:02:04;8.18;;;4.47;;
73585;SDS011;61865;50.232;18.614;2023-07-13T03:04:26;11.77;;;5.00;;
73585;SDS011;61865;50.232;18.614;2023-07-13T03:06:49;7.60;;;4.68;;
73585;SDS011;61865;50.232;18.614;2023-07-13T03:09:11;7.68;;;4.57;;
73585;SDS011;61865;50.232;18.614;2023-07-13T03:11:33;7.95;;;4.15;;
73585;SDS011;61865;50.232;18.614;2023-07-13T03:13:56;8.80;;;4.00;;
73585;SDS011;61865;50.232;18.614;2023-07-13T03:16:19;9.32;;;4.03;;
73585;SDS011;61865;50.232;18.614;2023-07-13T03:18:43;8.85;;;4.20;;
73585;SDS011;61865;50.232;18.614;2023-07-13T03:21:05;9.75;;;4.43;;
73585;SDS011;61865;50.232;18.614;2023-07-13T03:23:30;16.00;;;4.72;;
73585;SDS011;61865;50.232;18.614;2023-07-13T03:26:00;9.50;;;4.80;;
73585;SDS011;61865;50.232;18.614;2023-07-13T03:28:23;9.30;;;4.47;;
73585;SDS011;61865;50.232;18.614;2023-07-13T03:30:45;12.15;;;4.40;;
73585;SDS011;61865;50.232;18.614;2023-07-13T03:33:07;8.82;;;4.15;;
73585;SDS011;61865;50.232;18.614;2023-07-13T03:35:31;15.18;;;4.28;;
73585;SDS011;61865;50.232;18.614;2023-07-13T03:37:54;13.48;;;4.82;;
73585;SDS011;61865;50.232;18.614;2023-07-13T03:40:16;6.88;;;3.72;;
73585;SDS011;61865;50.232;18.614;2023-07-13T03:42:39;9.13;;;3.97;;
73585;SDS011;61865;50.232;18.614;2023-07-13T03:45:01;6.63;;;4.30;;
73585;SDS011;61865;50.232;18.614;2023-07-13T03:47:24;10.18;;;4.00;;
73585;SDS011;61865;50.232;18.614;2023-07-13T03:49:46;10.90;;;4.03;;
73585;SDS011;61865;50.232;18.614;2023-07-13T03:52:10;6.55;;;4.10;;
73585;SDS011;61865;50.232;18.614;2023-07-13T03:54:32;8.55;;;4.70;;
73585;SDS011;61865;50.232;18.614;2023-07-13T03:56:58;10.05;;;4.70;;
73585;SDS011;61865;50.232;18.614;2023-07-13T03:59:20;10.30;;;4.65;;
73585;SDS011;61865;50.232;18.614;2023-07-13T04:01:43;10.32;;;4.00;;
73585;SDS011;61865;50.232;18.614;2023-07-13T04:04:05;11.30;;;4.15;;
73585;SDS011;61865;50.232;18.614;2023-07-13T04:06:28;13.65;;;4.53;;
73585;SDS011;61865;50.232;18.614;2023-07-13T04:08:53;7.90;;;3.72;;
73585;SDS011;61865;50.232;18.614;2023-07-13T04:11:15;11.15;;;4.55;;
73585;SDS011;61865;50.232;18.614;2023-07-13T04:13:38;9.13;;;4.72;;
73585;SDS011;61865;50.232;18.614;2023-07-13T04:16:00;12.02;;;4.50;;
73585;SDS011;61865;50.232;18.614;2023-07-13T04:18:23;11.82;;;4.90;;
73585;SDS011;61865;50.232;18.614;2023-07-13T04:20:45;8.15;;;4.97;;
73585;SDS011;61865;50.232;18.614;2023-07-13T04:23:08;9.88;;;4.85;;
73585;SDS011;61865;50.232;18.614;2023-07-13T04:25:32;18.67;;;5.30;;
73585;SDS011;61865;50.232;18.614;2023-07-13T04:27:54;10.27;;;4.47;;
73585;SDS011;61865;50.232;18.614;2023-07-13T04:30:16;7.05;;;4.90;;
73585;SDS011;61865;50.232;18.614;2023-07-13T04:32:39;9.50;;;5.05;;
73585;SDS011;61865;50.232;18.614;2023-07-13T04:35:01;12.68;;;4.90;;
73585;SDS011;61865;50.232;18.614;2023-07-13T04:37:24;15.52;;;6.50;;
73585;SDS011;61865;50.232;18.614;2023-07-13T04:39:47;20.60;;;5.97;;
73585;SDS011;61865;50.232;18.614;2023-07-13T04:42:10;12.30;;;5.55;;
73585;SDS011;61865;50.232;18.614;2023-07-13T04:44:33;18.17;;;6.05;;
73585;SDS011;61865;50.232;18.614;2023-07-13T04:46:55;17.58;;;5.78;;
73585;SDS011;61865;50.232;18.614;2023-07-13T04:49:17;13.13;;;5.25;;
73585;SDS011;61865;50.232;18.614;2023-07-13T04:51:40;11.70;;;4.68;;
73585;SDS011;61865;50.232;18.614;2023-07-13T04:54:02;14.88;;;4.93;;
73585;SDS011;61865;50.232;18.614;2023-07-13T04:56:28;15.23;;;5.68;;
73585;SDS011;61865;50.232;18.614;2023-07-13T04:58:52;11.82;;;5.93;;
73585;SDS011;61865;50.232;18.614;2023-07-13T05:01:14;12.07;;;5.22;;
73585;SDS011;61865;50.232;18.614;2023-07-13T05:03:37;13.85;;;5.07;;
73585;SDS011;61865;50.232;18.614;2023-07-13T05:05:59;14.13;;;5.40;;
73585;SDS011;61865;50.232;18.614;2023-07-13T05:08:22;11.85;;;5.97;;
73585;SDS011;61865;50.232;18.614;2023-07-13T05:10:45;11.70;;;6.00;;
73585;SDS011;61865;50.232;18.614;2023-07-13T05:13:07;15.13;;;5.72;;
73585;SDS011;61865;50.232;18.614;2023-07-13T05:15:33;7.97;;;4.90;;
73585;SDS011;61865;50.232;18.614;2023-07-13T05:17:56;12.05;;;5.75;;
73585;SDS011;61865;50.232;18.614;2023-07-13T05:20:18;15.18;;;5.40;;
73585;SDS011;61865;50.232;18.614;2023-07-13T05:22:40;7.40;;;4.40;;
73585;SDS011;61865;50.232;18.614;2023-07-13T05:25:04;9.38;;;5.05;;
73585;SDS011;61865;50.232;18.614;2023-07-13T05:27:27;10.20;;;4.53;;
73585;SDS011;61865;50.232;18.614;2023-07-13T05:29:49;9.63;;;5.13;;
73585;SDS011;61865;50.232;18.614;2023-07-13T05:32:13;13.52;;;4.60;;
73585;SDS011;61865;50.232;18.614;2023-07-13T05:34:35;11.90;;;4.40;;
73585;SDS011;61865;50.232;18.614;2023-07-13T05:36:57;14.05;;;4.93;;
73585;SDS011;61865;50.232;18.614;2023-07-13T05:39:20;10.57;;;4.45;;
73585;SDS011;61865;50.232;18.614;2023-07-13T05:41:42;10.25;;;4.60;;
73585;SDS011;61865;50.232;18.614;2023-07-13T05:44:04;8.90;;;3.92;;
73585;SDS011;61865;50.232;18.614;2023-07-13T05:46:27;11.43;;;4.40;;
73585;SDS011;61865;50.232;18.614;2023-07-13T05:48:52;8.90;;;4.32;;
73585;SDS011;61865;50.232;18.614;2023-07-13T05:51:14;11.38;;;4.72;;
73585;SDS011;61865;50.232;18.614;2023-07-13T05:53:37;7.30;;;4.47;;
73585;SDS011;61865;50.232;18.614;2023-07-13T05:56:02;5.88;;;3.97;;
73585;SDS011;61865;50.232;18.614;2023-07-13T05:58:25;11.73;;;5.10;;
73585;SDS011;61865;50.232;18.614;2023-07-13T06:00:47;9.88;;;5.00;;
73585;SDS011;61865;50.232;18.614;2023-07-13T06:03:10;10.95;;;5.00;;
73585;SDS011;61865;50.232;18.614;2023-07-13T06:05:33;7.45;;;4.65;;
73585;SDS011;61865;50.232;18.614;2023-07-13T06:08:06;12.00;;;4.68;;
73585;SDS011;61865;50.232;18.614;2023-07-13T06:10:28;9.43;;;4.53;;
73585;SDS011;61865;50.232;18.614;2023-07-13T06:12:50;11.45;;;5.43;;
73585;SDS011;61865;50.232;18.614;2023-07-13T06:15:13;7.78;;;4.93;;
73585;SDS011;61865;50.232;18.614;2023-07-13T06:17:36;8.77;;;4.97;;
73585;SDS011;61865;50.232;18.614;2023-07-13T06:19:58;9.82;;;4.40;;
73585;SDS011;61865;50.232;18.614;2023-07-13T06:22:22;8.20;;;4.22;;
73585;SDS011;61865;50.232;18.614;2023-07-13T06:24:44;12.38;;;5.28;;
73585;SDS011;61865;50.232;18.614;2023-07-13T06:27:06;10.55;;;4.78;;
73585;SDS011;61865;50.232;18.614;2023-07-13T06:29:29;9.05;;;4.32;;
73585;SDS011;61865;50.232;18.614;2023-07-13T06:31:51;8.02;;;4.22;;
73585;SDS011;61865;50.232;18.614;2023-07-13T06:34:13;10.38;;;4.13;;
73585;SDS011;61865;50.232;18.614;2023-07-13T06:36:36;12.35;;;4.60;;
73585;SDS011;61865;50.232;18.614;2023-07-13T06:39:00;9.65;;;4.20;;
73585;SDS011;61865;50.232;18.614;2023-07-13T06:41:22;15.68;;;4.50;;
73585;SDS011;61865;50.232;18.614;2023-07-13T06:43:46;11.77;;;4.82;;
73585;SDS011;61865;50.232;18.614;2023-07-13T06:46:08;8.98;;;4.90;;
73585;SDS011;61865;50.232;18.614;2023-07-13T06:48:31;13.93;;;5.53;;
73585;SDS011;61865;50.232;18.614;2023-07-13T06:50:54;12.48;;;5.47;;
73585;SDS011;61865;50.232;18.614;2023-07-13T06:53:16;8.95;;;5.57;;
73585;SDS011;61865;50.232;18.614;2023-07-13T06:55:43;12.25;;;5.03;;
73585;SDS011;61865;50.232;18.614;2023-07-13T06:58:07;10.40;;;5.47;;
73585;SDS011;61865;50.232;18.614;2023-07-13T07:00:29;10.15;;;5.53;;
73585;SDS011;61865;50.232;18.614;2023-07-13T07:02:52;9.80;;;5.63;;
73585;SDS011;61865;50.232;18.614;2023-07-13T07:05:15;10.45;;;5.90;;
73585;SDS011;61865;50.232;18.614;2023-07-13T07:07:38;15.40;;;6.35;;
73585;SDS011;61865;50.232;18.614;2023-07-13T07:10:00;10.02;;;5.85;;
73585;SDS011;61865;50.232;18.614;2023-07-13T07:12:24;9.40;;;4.97;;
73585;SDS011;61865;50.232;18.614;2023-07-13T07:14:46;10.27;;;5.57;;
73585;SDS011;61865;50.232;18.614;2023-07-13T07:17:09;10.63;;;5.50;;
73585;SDS011;61865;50.232;18.614;2023-07-13T07:19:31;17.73;;;6.93;;
73585;SDS011;61865;50.232;18.614;2023-07-13T07:21:54;11.43;;;5.72;;
73585;SDS011;61865;50.232;18.614;2023-07-13T07:24:17;10.93;;;5.88;;
73585;SDS011;61865;50.232;18.614;2023-07-13T07:26:39;13.93;;;5.97;;
73585;SDS011;61865;50.232;18.614;2023-07-13T07:29:02;13.98;;;5.10;;
73585;SDS011;61865;50.232;18.614;2023-07-13T07:31:25;10.20;;;5.68;;
73585;SDS011;61865;50.232;18.614;2023-07-13T07:33:47;11.23;;;5.60;;
73585;SDS011;61865;50.232;18.614;2023-07-13T07:36:10;12.10;;;6.53;;
73585;SDS011;61865;50.232;18.614;2023-07-13T07:38:33;21.52;;;9.07;;
73585;SDS011;61865;50.232;18.614;2023-07-13T07:40:55;17.33;;;7.32;;
73585;SDS011;61865;50.232;18.614;2023-07-13T07:43:17;10.65;;;6.35;;
73585;SDS011;61865;50.232;18.614;2023-07-13T07:45:41;9.77;;;6.53;;
73585;SDS011;61865;50.232;18.614;2023-07-13T07:48:03;14.60;;;6.18;;
73585;SDS011;61865;50.232;18.614;2023-07-13T07:50:25;11.43;;;5.60;;
73585;SDS011;61865;50.232;18.614;2023-07-13T07:52:48;9.75;;;5.20;;
73585;SDS011;61865;50.232;18.614;2023-07-13T07:55:10;12.88;;;5.00;;
73585;SDS011;61865;50.232;18.614;2023-07-13T07:57:33;8.13;;;5.03;;
73585;SDS011;61865;50.232;18.614;2023-07-13T07:59:55;12.15;;;6.30;;
73585;SDS011;61865;50.232;18.614;2023-07-13T08:02:19;8.07;;;5.80;;
73585;SDS011;61865;50.232;18.614;2023-07-13T08:04:41;10.35;;;5.93;;
73585;SDS011;61865;50.232;18.614;2023-07-13T08:07:04;9.95;;;5.97;;
73585;SDS011;61865;50.232;18.614;2023-07-13T08:09:26;10.07;;;6.00;;
73585;SDS011;61865;50.232;18.614;2023-07-13T08:11:48;12.27;;;5.90;;
73585;SDS011;61865;50.232;18.614;2023-07-13T08:35:52;11.43;;;5.13;;
73585;SDS011;61865;50.232;18.614;2023-07-13T08:38:15;9.60;;;5.20;;
73585;SDS011;61865;50.232;18.614;2023-07-13T08:40:37;11.05;;;4.85;;
73585;SDS011;61865;50.232;18.614;2023-07-13T08:43:00;8.48;;;4.95;;
73585;SDS011;61865;50.232;18.614;2023-07-13T08:45:23;11.18;;;5.40;;
73585;SDS011;61865;50.232;18.614;2023-07-13T08:47:49;14.95;;;5.68;;
73585;SDS011;61865;50.232;18.614;2023-07-13T08:50:15;9.77;;;5.40;;
73585;SDS011;61865;50.232;18.614;2023-07-13T08:52:40;15.60;;;6.22;;
73585;SDS011;61865;50.232;18.614;2023-07-13T08:55:04;15.80;;;5.68;;
73585;SDS011;61865;50.232;18.614;2023-07-13T08:57:32;10.68;;;6.10;;
73585;SDS011;61865;50.232;18.614;2023-07-13T08:59:56;11.20;;;5.20;;
73585;SDS011;61865;50.232;18.614;2023-07-13T09:02:25;9.23;;;4.55;;
73585;SDS011;61865;50.232;18.614;2023-07-13T09:04:49;9.15;;;4.05;;
73585;SDS011;61865;50.232;18.614;2023-07-13T09:07:14;7.07;;;4.50;;
73585;SDS011;61865;50.232;18.614;2023-07-13T09:09:43;6.82;;;4.40;;
73585;SDS011;61865;50.232;18.614;2023-07-13T09:12:11;11.05;;;5.13;;
73585;SDS011;61865;50.232;18.614;2023-07-13T09:14:41;7.75;;;4.45;;
73585;SDS011;61865;50.232;18.614;2023-07-13T09:17:04;7.45;;;4.55;;
73585;SDS011;61865;50.232;18.614;2023-07-13T09:19:28;7.97;;;4.68;;
73585;SDS011;61865;50.232;18.614;2023-07-13T09:21:52;12.90;;;4.20;;
73585;SDS011;61865;50.232;18.614;2023-07-13T09:24:29;9.63;;;4.70;;
73585;SDS011;61865;50.232;18.614;2023-07-13T09:26:54;13.80;;;4.60;;
73585;SDS011;61865;50.232;18.614;2023-07-13T09:29:19;7.38;;;4.15;;
73585;SDS011;61865;50.232;18.614;2023-07-13T09:31:45;11.90;;;4.43;;
73585;SDS011;61865;50.232;18.614;2023-07-13T09:34:10;9.25;;;4.28;;
73585;SDS011;61865;50.232;18.614;2023-07-13T09:36:33;5.80;;;3.45;;
73585;SDS011;61865;50.232;18.614;2023-07-13T09:38:57;6.15;;;3.78;;
73585;SDS011;61865;50.232;18.614;2023-07-13T09:41:23;21.45;;;4.75;;
73585;SDS011;61865;50.232;18.614;2023-07-13T09:44:06;0.52;;;0.52;;
73585;SDS011;61865;50.232;18.614;2023-07-13T09:46:31;0.43;;;0.43;;
73585;SDS011;61865;50.232;18.614;2023-07-13T09:48:53;0.50;;;0.50;;
73585;SDS011;61865;50.232;18.614;2023-07-13T09:51:17;0.40;;;0.40;;
73585;SDS011;61865;50.232;18.614;2023-07-13T09:53:41;0.50;;;0.50;;
73585;SDS011;61865;50.232;18.614;2023-07-13T09:56:04;0.60;;;0.60;;
73585;SDS011;61865;50.232;18.614;2023-07-13T09:58:32;0.70;;;0.70;;
73585;SDS011;61865;50.232;18.614;2023-07-13T10:00:59;0.60;;;0.60;;
73585;SDS011;61865;50.232;18.614;2023-07-13T10:03:23;0.70;;;0.70;;
73585;SDS011;61865;50.232;18.614;2023-07-13T10:05:46;0.60;;;0.60;;
73585;SDS011;61865;50.232;18.614;2023-07-13T10:08:20;0.57;;;0.57;;
73585;SDS011;61865;50.232;18.614;2023-07-13T10:10:43;0.50;;;0.50;;
73585;SDS011;61865;50.232;18.614;2023-07-13T10:13:08;0.70;;;0.70;;
73585;SDS011;61865;50.232;18.614;2023-07-13T10:15:42;0.60;;;0.60;;
73585;SDS011;61865;50.232;18.614;2023-07-13T10:18:07;0.60;;;0.60;;
73585;SDS011;61865;50.232;18.614;2023-07-13T10:20:30;0.60;;;0.60;;
73585;SDS011;61865;50.232;18.614;2023-07-13T10:22:54;0.90;;;0.90;;
73585;SDS011;61865;50.232;18.614;2023-07-13T10:25:19;0.60;;;0.60;;
73585;SDS011;61865;50.232;18.614;2023-07-13T10:27:42;0.60;;;0.60;;
73585;SDS011;61865;50.232;18.614;2023-07-13T10:30:06;0.60;;;0.60;;
73585;SDS011;61865;50.232;18.614;2023-07-13T10:32:31;0.70;;;0.70;;
73585;SDS011;61865;50.232;18.614;2023-07-13T10:34:55;0.65;;;0.65;;
73585;SDS011;61865;50.232;18.614;2023-07-13T10:37:20;0.70;;;0.70;;
73585;SDS011;61865;50.232;18.614;2023-07-13T10:39:45;0.50;;;0.50;;
73585;SDS011;61865;50.232;18.614;2023-07-13T10:42:08;0.60;;;0.60;;
73585;SDS011;61865;50.232;18.614;2023-07-13T10:44:34;0.52;;;0.52;;
73585;SDS011;61865;50.232;18.614;2023-07-13T10:46:57;0.50;;;0.50;;
73585;SDS011;61865;50.232;18.614;2023-07-13T10:49:20;0.50;;;0.50;;
73585;SDS011;61865;50.232;18.614;2023-07-13T10:51:44;0.40;;;0.40;;
73585;SDS011;61865;50.232;18.614;2023-07-13T10:54:12;1.45;;;1.10;;
73585;SDS011;61865;50.232;18.614;2023-07-13T10:56:38;1.17;;;1.10;;
73585;SDS011;61865;50.232;18.614;2023-07-13T10:59:02;0.40;;;0.40;;
73585;SDS011;61865;50.232;18.614;2023-07-13T11:01:24;0.30;;;0.30;;
73585;SDS011;61865;50.232;18.614;2023-07-13T11:03:48;0.40;;;0.40;;
73585;SDS011;61865;50.232;18.614;2023-07-13T11:06:12;0.40;;;0.40;;
73585;SDS011;61865;50.232;18.614;2023-07-13T11:08:36;0.47;;;0.47;;
73585;SDS011;61865;50.232;18.614;2023-07-13T11:10:59;0.40;;;0.40;;
73585;SDS011;61865;50.232;18.614;2023-07-13T11:16:12;0.40;;;0.40;;
73585;SDS011;61865;50.232;18.614;2023-07-13T11:18:34;0.50;;;0.50;;
73585;SDS011;61865;50.232;18.614;2023-07-13T11:21:12;0.45;;;0.45;;
73585;SDS011;61865;50.232;18.614;2023-07-13T11:23:36;0.30;;;0.30;;
73585;SDS011;61865;50.232;18.614;2023-07-13T11:26:37;0.30;;;0.30;;
73585;SDS011;61865;50.232;18.614;2023-07-13T11:28:53;0.30;;;0.30;;
73585;SDS011;61865;50.232;18.614;2023-07-13T11:31:16;1.27;;;1.20;;
73585;SDS011;61865;50.232;18.614;2023-07-13T11:33:53;1.55;;;1.17;;
73585;SDS011;61865;50.232;18.614;2023-07-13T11:36:17;0.40;;;0.40;;
73585;SDS011;61865;50.232;18.614;2023-07-13T11:38:43;1.15;;;1.00;;
73585;SDS011;61865;50.232;18.614;2023-07-13T11:41:10;0.25;;;0.25;;
73585;SDS011;61865;50.232;18.614;2023-07-13T11:43:35;0.73;;;0.73;;
73585;SDS011;61865;50.232;18.614;2023-07-13T11:45:58;0.30;;;0.30;;
73585;SDS011;61865;50.232;18.614;2023-07-13T11:48:21;0.30;;;0.30;;
73585;SDS011;61865;50.232;18.614;2023-07-13T11:50:48;0.20;;;0.20;;
73585;SDS011;61865;50.232;18.614;2023-07-13T11:53:11;0.30;;;0.30;;
73585;SDS011;61865;50.232;18.614;2023-07-13T11:55:37;0.30;;;0.30;;
73585;SDS011;61865;50.232;18.614;2023-07-13T11:58:00;0.30;;;0.30;;
73585;SDS011;61865;50.232;18.614;2023-07-13T12:00:25;1.85;;;0.57;;
73585;SDS011;61865;50.232;18.614;2023-07-13T12:02:49;0.30;;;0.30;;
73585;SDS011;61865;50.232;18.614;2023-07-13T12:05:12;0.40;;;0.40;;
73585;SDS011;61865;50.232;18.614;2023-07-13T12:07:36;0.47;;;0.47;;
73585;SDS011;61865;50.232;18.614;2023-07-13T12:10:00;0.45;;;0.45;;
73585;SDS011;61865;50.232;18.614;2023-07-13T12:12:28;0.28;;;0.28;;
73585;SDS011;61865;50.232;18.614;2023-07-13T12:14:52;0.40;;;0.40;;
73585;SDS011;61865;50.232;18.614;2023-07-13T12:17:16;0.30;;;0.30;;
73585;SDS011;61865;50.232;18.614;2023-07-13T12:19:40;0.35;;;0.35;;
73585;SDS011;61865;50.232;18.614;2023-07-13T12:22:03;0.30;;;0.30;;
73585;SDS011;61865;50.232;18.614;2023-07-13T12:24:26;0.30;;;0.30;;
73585;SDS011;61865;50.232;18.614;2023-07-13T12:26:51;0.30;;;0.30;;
73585;SDS011;61865;50.232;18.614;2023-07-13T12:29:16;1.52;;;0.57;;
73585;SDS011;61865;50.232;18.614;2023-07-13T12:31:40;0.40;;;0.40;;
73585;SDS011;61865;50.232;18.614;2023-07-13T12:34:06;0.30;;;0.30;;
73585;SDS011;61865;50.232;18.614;2023-07-13T12:36:29;0.35;;;0.35;;
73585;SDS011;61865;50.232;18.614;2023-07-13T12:38:53;0.50;;;0.50;;
73585;SDS011;61865;50.232;18.614;2023-07-13T12:41:16;0.30;;;0.30;;
73585;SDS011;61865;50.232;18.614;2023-07-13T12:43:39;2.22;;;2.05;;
73585;SDS011;61865;50.232;18.614;2023-07-13T12:46:05;0.40;;;0.40;;
73585;SDS011;61865;50.232;18.614;2023-07-13T12:48:37;0.30;;;0.30;;
73585;SDS011;61865;50.232;18.614;2023-07-13T12:51:01;0.20;;;0.20;;
73585;SDS011;61865;50.232;18.614;2023-07-13T12:53:27;0.30;;;0.30;;
73585;SDS011;61865;50.232;18.614;2023-07-13T12:55:52;0.30;;;0.30;;
73585;SDS011;61865;50.232;18.614;2023-07-13T12:58:17;0.30;;;0.30;;
73585;SDS011;61865;50.232;18.614;2023-07-13T13:00:40;3.08;;;0.75;;
73585;SDS011;61865;50.232;18.614;2023-07-13T13:03:05;0.20;;;0.20;;
73585;SDS011;61865;50.232;18.614;2023-07-13T13:05:27;0.22;;;0.22;;
73585;SDS011;61865;50.232;18.614;2023-07-13T13:07:50;0.25;;;0.25;;
73585;SDS011;61865;50.232;18.614;2023-07-13T13:10:13;0.30;;;0.30;;
73585;SDS011;61865;50.232;18.614;2023-07-13T13:12:36;0.20;;;0.20;;
73585;SDS011;61865;50.232;18.614;2023-07-13T13:14:58;0.20;;;0.20;;
73585;SDS011;61865;50.232;18.614;2023-07-13T13:17:22;0.20;;;0.20;;
73585;SDS011;61865;50.232;18.614;2023-07-13T13:19:48;0.20;;;0.20;;
73585;SDS011;61865;50.232;18.614;2023-07-13T13:22:13;1.17;;;1.17;;
73585;SDS011;61865;50.232;18.614;2023-07-13T13:24:35;0.30;;;0.30;;
73585;SDS011;61865;50.232;18.614;2023-07-13T13:26:57;0.30;;;0.30;;
73585;SDS011;61865;50.232;18.614;2023-07-13T13:29:21;0.35;;;0.35;;
73585;SDS011;61865;50.232;18.614;2023-07-13T13:31:44;0.20;;;0.20;;
73585;SDS011;61865;50.232;18.614;2023-07-13T13:34:07;0.30;;;0.30;;
73585;SDS011;61865;50.232;18.614;2023-07-13T13:36:34;0.20;;;0.20;;
73585;SDS011;61865;50.232;18.614;2023-07-13T13:38:57;0.30;;;0.30;;
73585;SDS011;61865;50.232;18.614;2023-07-13T13:41:24;0.80;;;0.75;;
73585;SDS011;61865;50.232;18.614;2023-07-13T13:43:47;0.28;;;0.28;;
73585;SDS011;61865;50.232;18.614;2023-07-13T13:46:13;0.15;;;0.15;;
73585;SDS011;61865;50.232;18.614;2023-07-13T13:48:36;0.77;;;0.77;;
73585;SDS011;61865;50.232;18.614;2023-07-13T13:50:58;0.43;;;0.43;;
73585;SDS011;61865;50.232;18.614;2023-07-13T13:53:23;0.43;;;0.43;;
73585;SDS011;61865;50.232;18.614;2023-07-13T13:55:49;0.20;;;0.20;;
73585;SDS011;61865;50.232;18.614;2023-07-13T13:58:14;0.28;;;0.28;;
73585;SDS011;61865;50.232;18.614;2023-07-13T14:00:36;0.30;;;0.30;;
73585;SDS011;61865;50.232;18.614;2023-07-13T14:03:02;0.10;;;0.10;;
73585;SDS011;61865;50.232;18.614;2023-07-13T14:05:24;0.60;;;0.60;;
73585;SDS011;61865;50.232;18.614;2023-07-13T14:07:47;0.10;;;0.10;;
73585;SDS011;61865;50.232;18.614;2023-07-13T14:10:12;0.32;;;0.30;;
73585;SDS011;61865;50.232;18.614;2023-07-13T14:12:38;0.30;;;0.30;;
73585;SDS011;61865;50.232;18.614;2023-07-13T14:15:00;0.32;;;0.32;;
73585;SDS011;61865;50.232;18.614;2023-07-13T14:17:28;0.52;;;0.52;;
73585;SDS011;61865;50.232;18.614;2023-07-13T14:19:50;0.20;;;0.20;;
73585;SDS011;61865;50.232;18.614;2023-07-13T14:22:17;0.40;;;0.40;;
73585;SDS011;61865;50.232;18.614;2023-07-13T14:24:40;0.32;;;0.32;;
73585;SDS011;61865;50.232;18.614;2023-07-13T14:27:04;0.22;;;0.22;;
73585;SDS011;61865;50.232;18.614;2023-07-13T14:29:26;0.30;;;0.30;;
73585;SDS011;61865;50.232;18.614;2023-07-13T14:31:49;0.52;;;0.52;;
73585;SDS011;61865;50.232;18.614;2023-07-13T14:34:12;0.38;;;0.38;;